sensor_id;sensor_type;location;lat;lon;timestamp;pressure;altitude;pressure_sealevel;temperature;humidity
53659;BME280;41524;35.624;139.698;2022-10-19T00:00:12;101915.00;;;14.51;48.37
53659;BME280;41524;35.624;139.698;2022-10-19T00:05:11;101917.00;;;13.56;48.79
53659;BME280;41524;35.624;139.698;2022-10-19T00:10:11;101914.00;;;13.90;48.23
53659;BME280;41524;35.624;139.698;2022-10-19T00:15:11;101911.00;;;14.81;47.48
53659;BME280;41524;35.624;139.698;2022-10-19T00:20:18;101908.00;;;13.72;47.90
53659;BME280;41524;35.624;139.698;2022-10-19T00:25:11;101903.00;;;14.81;46.93
53659;BME280;41524;35.624;139.698;2022-10-19T00:30:11;101894.00;;;13.33;49.90
53659;BME280;41524;35.624;139.698;2022-10-19T00:35:12;101892.00;;;13.17;51.46
53659;BME280;41524;35.624;139.698;2022-10-19T00:40:12;101884.00;;;15.39;47.32
53659;BME280;41524;35.624;139.698;2022-10-19T00:45:17;101882.00;;;15.89;45.64
53659;BME280;41524;35.624;139.698;2022-10-19T00:50:13;101872.00;;;15.40;44.95
53659;BME280;41524;35.624;139.698;2022-10-19T00:55:15;101861.00;;;16.40;43.86
53659;BME280;41524;35.624;139.698;2022-10-19T01:00:11;101861.00;;;15.76;44.76
53659;BME280;41524;35.624;139.698;2022-10-19T01:05:12;101852.00;;;16.33;42.89
53659;BME280;41524;35.624;139.698;2022-10-19T01:10:12;101864.00;;;16.03;42.28
53659;BME280;41524;35.624;139.698;2022-10-19T01:15:18;101870.00;;;16.06;43.48
53659;BME280;41524;35.624;139.698;2022-10-19T01:20:32;101869.00;;;15.39;43.76
53659;BME280;41524;35.624;139.698;2022-10-19T01:25:21;101858.00;;;15.08;42.33
53659;BME280;41524;35.624;139.698;2022-10-19T01:30:15;101854.00;;;16.70;40.48
53659;BME280;41524;35.624;139.698;2022-10-19T01:35:15;101867.00;;;15.26;44.26
53659;BME280;41524;35.624;139.698;2022-10-19T01:40:16;101861.00;;;13.61;46.83
53659;BME280;41524;35.624;139.698;2022-10-19T01:45:15;101833.00;;;12.86;47.65
53659;BME280;41524;35.624;139.698;2022-10-19T01:50:15;101820.00;;;14.84;44.39
53659;BME280;41524;35.624;139.698;2022-10-19T01:55:13;101824.00;;;16.39;41.57
53659;BME280;41524;35.624;139.698;2022-10-19T02:00:12;101826.00;;;15.66;43.99
53659;BME280;41524;35.624;139.698;2022-10-19T02:05:11;101824.00;;;16.43;41.44
53659;BME280;41524;35.624;139.698;2022-10-19T02:10:11;101821.00;;;15.80;43.76
53659;BME280;41524;35.624;139.698;2022-10-19T02:15:16;101812.00;;;15.81;42.63
53659;BME280;41524;35.624;139.698;2022-10-19T02:20:13;101803.00;;;16.59;41.18
53659;BME280;41524;35.624;139.698;2022-10-19T02:25:13;101797.00;;;13.34;43.52
53659;BME280;41524;35.624;139.698;2022-10-19T02:30:11;101789.00;;;16.95;39.34
53659;BME280;41524;35.624;139.698;2022-10-19T02:35:12;101787.00;;;15.81;41.14
53659;BME280;41524;35.624;139.698;2022-10-19T02:40:11;101776.00;;;13.45;44.48
53659;BME280;41524;35.624;139.698;2022-10-19T02:45:16;101763.00;;;16.38;40.16
53659;BME280;41524;35.624;139.698;2022-10-19T02:50:11;101759.00;;;15.44;40.89
53659;BME280;41524;35.624;139.698;2022-10-19T02:55:16;101753.00;;;15.72;40.22
53659;BME280;41524;35.624;139.698;2022-10-19T03:00:12;101757.00;;;14.43;44.39
53659;BME280;41524;35.624;139.698;2022-10-19T03:05:15;101752.00;;;13.29;44.43
53659;BME280;41524;35.624;139.698;2022-10-19T03:10:11;101738.00;;;14.56;41.77
53659;BME280;41524;35.624;139.698;2022-10-19T03:15:15;101747.00;;;15.44;38.74
53659;BME280;41524;35.624;139.698;2022-10-19T03:20:10;101737.00;;;15.57;38.34
53659;BME280;41524;35.624;139.698;2022-10-19T03:25:10;101743.00;;;15.53;38.24
53659;BME280;41524;35.624;139.698;2022-10-19T03:30:13;101727.00;;;15.65;36.94
53659;BME280;41524;35.624;139.698;2022-10-19T03:35:10;101722.00;;;15.85;37.59
53659;BME280;41524;35.624;139.698;2022-10-19T03:40:11;101718.00;;;14.79;40.43
53659;BME280;41524;35.624;139.698;2022-10-19T03:45:11;101708.00;;;16.69;36.58
53659;BME280;41524;35.624;139.698;2022-10-19T03:50:11;101707.00;;;16.20;37.32
53659;BME280;41524;35.624;139.698;2022-10-19T03:55:16;101705.00;;;15.65;39.33
53659;BME280;41524;35.624;139.698;2022-10-19T04:00:13;101709.00;;;14.95;41.40
53659;BME280;41524;35.624;139.698;2022-10-19T04:05:11;101712.00;;;16.17;39.59
53659;BME280;41524;35.624;139.698;2022-10-19T04:10:10;101708.00;;;14.28;42.07
53659;BME280;41524;35.624;139.698;2022-10-19T04:15:10;101705.00;;;14.85;40.70
53659;BME280;41524;35.624;139.698;2022-10-19T04:20:11;101683.00;;;15.72;41.51
53659;BME280;41524;35.624;139.698;2022-10-19T04:25:11;101677.00;;;15.24;39.66
53659;BME280;41524;35.624;139.698;2022-10-19T04:30:11;101672.00;;;15.48;40.63
53659;BME280;41524;35.624;139.698;2022-10-19T04:35:14;101682.00;;;14.90;40.17
53659;BME280;41524;35.624;139.698;2022-10-19T04:40:11;101672.00;;;15.04;39.73
53659;BME280;41524;35.624;139.698;2022-10-19T04:45:12;101673.00;;;15.48;37.74
53659;BME280;41524;35.624;139.698;2022-10-19T04:50:11;101674.00;;;14.33;39.47
53659;BME280;41524;35.624;139.698;2022-10-19T04:55:11;101663.00;;;16.04;38.64
53659;BME280;41524;35.624;139.698;2022-10-19T05:00:16;101678.00;;;14.59;38.94
53659;BME280;41524;35.624;139.698;2022-10-19T05:05:17;101674.00;;;16.76;36.55
53659;BME280;41524;35.624;139.698;2022-10-19T05:10:13;101683.00;;;17.72;36.05
53659;BME280;41524;35.624;139.698;2022-10-19T05:15:12;101681.00;;;17.16;36.23
53659;BME280;41524;35.624;139.698;2022-10-19T05:20:11;101681.00;;;17.48;35.92
53659;BME280;41524;35.624;139.698;2022-10-19T05:25:14;101689.00;;;15.15;38.02
53659;BME280;41524;35.624;139.698;2022-10-19T05:30:11;101686.00;;;17.39;36.41
53659;BME280;41524;35.624;139.698;2022-10-19T05:35:10;101684.00;;;16.95;36.67
53659;BME280;41524;35.624;139.698;2022-10-19T05:40:12;101688.00;;;16.45;36.98
53659;BME280;41524;35.624;139.698;2022-10-19T05:45:11;101694.00;;;16.18;36.02
53659;BME280;41524;35.624;139.698;2022-10-19T05:50:13;101718.00;;;15.47;37.27
53659;BME280;41524;35.624;139.698;2022-10-19T05:55:12;101736.00;;;15.56;36.54
53659;BME280;41524;35.624;139.698;2022-10-19T06:00:22;101712.00;;;16.05;37.95
53659;BME280;41524;35.624;139.698;2022-10-19T06:05:15;101725.00;;;14.91;39.93
53659;BME280;41524;35.624;139.698;2022-10-19T06:10:13;101724.00;;;14.30;40.47
53659;BME280;41524;35.624;139.698;2022-10-19T06:15:11;101717.00;;;14.40;38.13
53659;BME280;41524;35.624;139.698;2022-10-19T06:20:11;101722.00;;;15.16;37.84
53659;BME280;41524;35.624;139.698;2022-10-19T06:25:10;101744.00;;;15.20;36.86
53659;BME280;41524;35.624;139.698;2022-10-19T06:30:12;101707.00;;;14.30;37.01
53659;BME280;41524;35.624;139.698;2022-10-19T06:35:11;101716.00;;;16.47;35.49
53659;BME280;41524;35.624;139.698;2022-10-19T06:40:11;101731.00;;;14.73;35.13
53659;BME280;41524;35.624;139.698;2022-10-19T06:45:11;101736.00;;;14.84;35.52
53659;BME280;41524;35.624;139.698;2022-10-19T06:50:19;101742.00;;;14.80;35.71
53659;BME280;41524;35.624;139.698;2022-10-19T06:55:11;101738.00;;;15.36;34.12
53659;BME280;41524;35.624;139.698;2022-10-19T07:00:11;101754.00;;;15.03;34.41
53659;BME280;41524;35.624;139.698;2022-10-19T07:05:11;101762.00;;;14.11;38.66
53659;BME280;41524;35.624;139.698;2022-10-19T07:10:11;101771.00;;;14.85;36.41
53659;BME280;41524;35.624;139.698;2022-10-19T07:15:12;101782.00;;;14.44;37.15
53659;BME280;41524;35.624;139.698;2022-10-19T07:20:11;101788.00;;;14.56;38.02
53659;BME280;41524;35.624;139.698;2022-10-19T07:25:12;101780.00;;;14.92;38.15
53659;BME280;41524;35.624;139.698;2022-10-19T07:30:11;101788.00;;;14.78;38.04
53659;BME280;41524;35.624;139.698;2022-10-19T07:35:11;101759.00;;;13.31;41.21
53659;BME280;41524;35.624;139.698;2022-10-19T07:40:13;101761.00;;;14.32;38.67
53659;BME280;41524;35.624;139.698;2022-10-19T07:45:11;101779.00;;;14.09;38.32
53659;BME280;41524;35.624;139.698;2022-10-19T07:50:11;101775.00;;;13.19;39.56
53659;BME280;41524;35.624;139.698;2022-10-19T07:55:11;101775.00;;;14.37;37.91
53659;BME280;41524;35.624;139.698;2022-10-19T08:00:12;101780.00;;;14.13;38.49
53659;BME280;41524;35.624;139.698;2022-10-19T08:05:13;101798.00;;;15.23;36.76
53659;BME280;41524;35.624;139.698;2022-10-19T08:10:11;101821.00;;;15.31;36.72
53659;BME280;41524;35.624;139.698;2022-10-19T08:15:11;101846.00;;;15.08;37.65
53659;BME280;41524;35.624;139.698;2022-10-19T08:20:13;101818.00;;;13.54;41.65
53659;BME280;41524;35.624;139.698;2022-10-19T08:25:11;101803.00;;;13.60;43.05
53659;BME280;41524;35.624;139.698;2022-10-19T08:30:11;101808.00;;;14.53;38.87
53659;BME280;41524;35.624;139.698;2022-10-19T08:35:10;101819.00;;;13.87;39.34
53659;BME280;41524;35.624;139.698;2022-10-19T08:40:19;101836.00;;;14.83;37.96
53659;BME280;41524;35.624;139.698;2022-10-19T08:45:25;101849.00;;;13.62;40.12
53659;BME280;41524;35.624;139.698;2022-10-19T08:50:19;101871.00;;;15.64;36.91
53659;BME280;41524;35.624;139.698;2022-10-19T08:55:22;101868.00;;;13.42;40.90
53659;BME280;41524;35.624;139.698;2022-10-19T09:00:16;101863.00;;;12.68;42.10
53659;BME280;41524;35.624;139.698;2022-10-19T09:05:15;101874.00;;;13.04;41.52
53659;BME280;41524;35.624;139.698;2022-10-19T09:10:20;101869.00;;;14.42;39.49
53659;BME280;41524;35.624;139.698;2022-10-19T09:15:13;101845.00;;;13.10;42.97
53659;BME280;41524;35.624;139.698;2022-10-19T09:20:19;101862.00;;;14.66;40.12
53659;BME280;41524;35.624;139.698;2022-10-19T09:25:16;101894.00;;;13.26;41.97
53659;BME280;41524;35.624;139.698;2022-10-19T09:30:17;101921.00;;;13.55;42.12
53659;BME280;41524;35.624;139.698;2022-10-19T09:35:20;101931.00;;;14.50;41.08
53659;BME280;41524;35.624;139.698;2022-10-19T09:40:16;101923.00;;;13.21;43.53
53659;BME280;41524;35.624;139.698;2022-10-19T09:45:16;101924.00;;;15.78;39.44
53659;BME280;41524;35.624;139.698;2022-10-19T09:50:17;101926.00;;;15.34;40.36
53659;BME280;41524;35.624;139.698;2022-10-19T09:55:25;101931.00;;;12.47;44.71
53659;BME280;41524;35.624;139.698;2022-10-19T10:00:20;101944.00;;;13.07;44.13
53659;BME280;41524;35.624;139.698;2022-10-19T10:05:14;101957.00;;;15.08;41.40
53659;BME280;41524;35.624;139.698;2022-10-19T10:10:18;101969.00;;;15.01;41.12
53659;BME280;41524;35.624;139.698;2022-10-19T10:15:23;101967.00;;;13.89;43.51
53659;BME280;41524;35.624;139.698;2022-10-19T10:20:24;101974.00;;;14.57;44.65
53659;BME280;41524;35.624;139.698;2022-10-19T10:25:15;101990.00;;;14.63;42.90
53659;BME280;41524;35.624;139.698;2022-10-19T10:30:18;101993.00;;;14.57;43.66
53659;BME280;41524;35.624;139.698;2022-10-19T10:35:18;101990.00;;;15.11;43.37
53659;BME280;41524;35.624;139.698;2022-10-19T10:40:22;101990.00;;;14.47;45.24
53659;BME280;41524;35.624;139.698;2022-10-19T10:45:18;101991.00;;;15.08;43.46
53659;BME280;41524;35.624;139.698;2022-10-19T10:50:19;101994.00;;;13.56;46.29
53659;BME280;41524;35.624;139.698;2022-10-19T10:55:18;101990.00;;;13.90;46.20
53659;BME280;41524;35.624;139.698;2022-10-19T11:00:18;101988.00;;;13.72;46.97
53659;BME280;41524;35.624;139.698;2022-10-19T11:05:16;101983.00;;;14.52;44.72
53659;BME280;41524;35.624;139.698;2022-10-19T11:10:20;101988.00;;;13.99;45.95
53659;BME280;41524;35.624;139.698;2022-10-19T11:15:27;101998.00;;;13.71;45.89
53659;BME280;41524;35.624;139.698;2022-10-19T11:20:15;102006.00;;;14.34;45.43
53659;BME280;41524;35.624;139.698;2022-10-19T11:25:25;102017.00;;;14.45;45.46
53659;BME280;41524;35.624;139.698;2022-10-19T11:30:22;102032.00;;;14.60;45.30
53659;BME280;41524;35.624;139.698;2022-10-19T11:35:26;102035.00;;;14.49;45.57
53659;BME280;41524;35.624;139.698;2022-10-19T11:40:23;102041.00;;;14.08;47.44
53659;BME280;41524;35.624;139.698;2022-10-19T11:45:26;102038.00;;;14.16;47.30
53659;BME280;41524;35.624;139.698;2022-10-19T11:50:29;102040.00;;;14.07;46.86
53659;BME280;41524;35.624;139.698;2022-10-19T11:55:22;102044.00;;;14.22;47.56
53659;BME280;41524;35.624;139.698;2022-10-19T12:00:22;102046.00;;;14.09;45.62
53659;BME280;41524;35.624;139.698;2022-10-19T12:05:14;102039.00;;;14.49;44.79
53659;BME280;41524;35.624;139.698;2022-10-19T12:10:23;102038.00;;;14.33;45.36
53659;BME280;41524;35.624;139.698;2022-10-19T12:15:22;102047.00;;;14.51;45.09
53659;BME280;41524;35.624;139.698;2022-10-19T12:20:19;102054.00;;;14.40;44.12
53659;BME280;41524;35.624;139.698;2022-10-19T12:25:18;102062.00;;;13.83;44.96
53659;BME280;41524;35.624;139.698;2022-10-19T12:30:15;102067.00;;;14.46;44.34
53659;BME280;41524;35.624;139.698;2022-10-19T12:35:43;102066.00;;;14.52;44.12
53659;BME280;41524;35.624;139.698;2022-10-19T12:40:22;102070.00;;;14.99;44.35
53659;BME280;41524;35.624;139.698;2022-10-19T12:45:20;102085.00;;;13.71;46.68
53659;BME280;41524;35.624;139.698;2022-10-19T12:50:16;102097.00;;;14.46;45.21
53659;BME280;41524;35.624;139.698;2022-10-19T12:55:24;102101.00;;;14.12;46.46
53659;BME280;41524;35.624;139.698;2022-10-19T13:00:21;102112.00;;;14.39;46.40
53659;BME280;41524;35.624;139.698;2022-10-19T13:05:21;102115.00;;;13.91;47.12
53659;BME280;41524;35.624;139.698;2022-10-19T13:10:20;102119.00;;;13.73;47.44
53659;BME280;41524;35.624;139.698;2022-10-19T13:21:46;102134.00;;;13.82;47.58
53659;BME280;41524;35.624;139.698;2022-10-19T13:25:26;102132.00;;;13.69;47.75
53659;BME280;41524;35.624;139.698;2022-10-19T13:30:59;102126.00;;;14.00;47.53
53659;BME280;41524;35.624;139.698;2022-10-19T13:35:30;102124.00;;;13.75;47.90
53659;BME280;41524;35.624;139.698;2022-10-19T13:40:19;102123.00;;;13.58;48.75
53659;BME280;41524;35.624;139.698;2022-10-19T13:45:22;102123.00;;;13.49;48.32
53659;BME280;41524;35.624;139.698;2022-10-19T13:50:26;102121.00;;;13.60;48.34
53659;BME280;41524;35.624;139.698;2022-10-19T13:55:28;102122.00;;;13.38;48.35
53659;BME280;41524;35.624;139.698;2022-10-19T14:00:15;102120.00;;;13.28;47.53
53659;BME280;41524;35.624;139.698;2022-10-19T14:05:27;102120.00;;;13.32;47.17
53659;BME280;41524;35.624;139.698;2022-10-19T14:10:18;102117.00;;;13.68;45.74
53659;BME280;41524;35.624;139.698;2022-10-19T14:15:22;102116.00;;;14.04;44.14
53659;BME280;41524;35.624;139.698;2022-10-19T14:20:25;102106.00;;;14.36;42.94
53659;BME280;41524;35.624;139.698;2022-10-19T14:25:19;102103.00;;;14.29;41.37
53659;BME280;41524;35.624;139.698;2022-10-19T14:30:22;102105.00;;;14.56;40.67
53659;BME280;41524;35.624;139.698;2022-10-19T14:35:40;102104.00;;;14.46;40.70
53659;BME280;41524;35.624;139.698;2022-10-19T14:40:31;102099.00;;;14.30;39.74
53659;BME280;41524;35.624;139.698;2022-10-19T14:45:19;102098.00;;;14.18;41.46
53659;BME280;41524;35.624;139.698;2022-10-19T14:50:13;102106.00;;;13.04;43.68
53659;BME280;41524;35.624;139.698;2022-10-19T14:55:15;102103.00;;;13.42;43.28
53659;BME280;41524;35.624;139.698;2022-10-19T15:00:18;102106.00;;;12.97;43.66
53659;BME280;41524;35.624;139.698;2022-10-19T15:05:19;102105.00;;;12.52;44.55
53659;BME280;41524;35.624;139.698;2022-10-19T15:10:20;102108.00;;;13.17;43.91
53659;BME280;41524;35.624;139.698;2022-10-19T15:15:16;102112.00;;;13.33;43.97
53659;BME280;41524;35.624;139.698;2022-10-19T15:20:24;102123.00;;;12.17;46.73
53659;BME280;41524;35.624;139.698;2022-10-19T15:25:26;102129.00;;;13.53;44.35
53659;BME280;41524;35.624;139.698;2022-10-19T15:30:26;102133.00;;;13.02;44.78
53659;BME280;41524;35.624;139.698;2022-10-19T15:35:15;102134.00;;;13.41;43.04
53659;BME280;41524;35.624;139.698;2022-10-19T15:40:20;102144.00;;;11.45;46.56
53659;BME280;41524;35.624;139.698;2022-10-19T15:45:33;102149.00;;;10.70;48.79
53659;BME280;41524;35.624;139.698;2022-10-19T15:50:35;102153.00;;;12.85;45.48
53659;BME280;41524;35.624;139.698;2022-10-19T15:55:12;102155.00;;;9.77;52.02
53659;BME280;41524;35.624;139.698;2022-10-19T16:00:13;102155.00;;;12.34;46.46
53659;BME280;41524;35.624;139.698;2022-10-19T16:05:11;102162.00;;;11.07;48.92
53659;BME280;41524;35.624;139.698;2022-10-19T16:10:17;102165.00;;;12.24;44.91
53659;BME280;41524;35.624;139.698;2022-10-19T16:15:13;102171.00;;;13.01;40.40
53659;BME280;41524;35.624;139.698;2022-10-19T16:20:11;102174.00;;;13.76;39.34
53659;BME280;41524;35.624;139.698;2022-10-19T16:25:10;102178.00;;;13.03;40.70
53659;BME280;41524;35.624;139.698;2022-10-19T16:30:16;102176.00;;;13.78;39.52
53659;BME280;41524;35.624;139.698;2022-10-19T16:35:13;102169.00;;;13.46;40.12
53659;BME280;41524;35.624;139.698;2022-10-19T16:40:12;102166.00;;;11.48;44.14
53659;BME280;41524;35.624;139.698;2022-10-19T16:45:11;102164.00;;;13.27;41.16
53659;BME280;41524;35.624;139.698;2022-10-19T16:50:11;102164.00;;;10.36;46.19
53659;BME280;41524;35.624;139.698;2022-10-19T16:55:19;102162.00;;;11.02;45.60
53659;BME280;41524;35.624;139.698;2022-10-19T17:00:12;102162.00;;;11.90;44.13
53659;BME280;41524;35.624;139.698;2022-10-19T17:05:12;102166.00;;;11.58;44.26
53659;BME280;41524;35.624;139.698;2022-10-19T17:10:12;102171.00;;;12.81;42.69
53659;BME280;41524;35.624;139.698;2022-10-19T17:15:11;102179.00;;;12.57;41.83
53659;BME280;41524;35.624;139.698;2022-10-19T17:20:15;102182.00;;;11.11;44.70
53659;BME280;41524;35.624;139.698;2022-10-19T17:25:10;102172.00;;;11.90;40.83
53659;BME280;41524;35.624;139.698;2022-10-19T17:30:11;102166.00;;;13.00;38.59
53659;BME280;41524;35.624;139.698;2022-10-19T17:35:11;102163.00;;;13.60;37.89
53659;BME280;41524;35.624;139.698;2022-10-19T17:40:11;102161.00;;;12.89;38.52
53659;BME280;41524;35.624;139.698;2022-10-19T17:45:15;102161.00;;;12.47;38.93
53659;BME280;41524;35.624;139.698;2022-10-19T17:50:11;102158.00;;;12.48;38.22
53659;BME280;41524;35.624;139.698;2022-10-19T17:55:11;102151.00;;;12.14;38.70
53659;BME280;41524;35.624;139.698;2022-10-19T18:00:16;102155.00;;;12.07;36.88
53659;BME280;41524;35.624;139.698;2022-10-19T18:05:12;102158.00;;;12.37;36.56
53659;BME280;41524;35.624;139.698;2022-10-19T18:10:12;102160.00;;;11.07;38.28
53659;BME280;41524;35.624;139.698;2022-10-19T18:15:15;102155.00;;;11.06;38.89
53659;BME280;41524;35.624;139.698;2022-10-19T18:20:11;102157.00;;;11.72;38.38
53659;BME280;41524;35.624;139.698;2022-10-19T18:25:10;102163.00;;;11.82;38.26
53659;BME280;41524;35.624;139.698;2022-10-19T18:30:11;102174.00;;;11.87;38.86
53659;BME280;41524;35.624;139.698;2022-10-19T18:35:13;102182.00;;;11.69;39.58
53659;BME280;41524;35.624;139.698;2022-10-19T18:40:11;102188.00;;;11.82;38.73
53659;BME280;41524;35.624;139.698;2022-10-19T18:45:11;102195.00;;;12.00;39.19
53659;BME280;41524;35.624;139.698;2022-10-19T18:50:15;102199.00;;;11.24;40.19
53659;BME280;41524;35.624;139.698;2022-10-19T18:55:10;102204.00;;;12.42;39.02
53659;BME280;41524;35.624;139.698;2022-10-19T19:00:11;102213.00;;;12.63;39.28
53659;BME280;41524;35.624;139.698;2022-10-19T19:05:17;102224.00;;;11.93;41.02
53659;BME280;41524;35.624;139.698;2022-10-19T19:10:11;102231.00;;;11.31;42.75
53659;BME280;41524;35.624;139.698;2022-10-19T19:15:11;102235.00;;;11.25;43.52
53659;BME280;41524;35.624;139.698;2022-10-19T19:20:11;102246.00;;;11.43;43.08
53659;BME280;41524;35.624;139.698;2022-10-19T19:25:11;102255.00;;;11.08;44.39
53659;BME280;41524;35.624;139.698;2022-10-19T19:30:11;102265.00;;;10.86;45.39
53659;BME280;41524;35.624;139.698;2022-10-19T19:35:11;102268.00;;;10.69;45.09
53659;BME280;41524;35.624;139.698;2022-10-19T19:40:10;102269.00;;;10.68;45.38
53659;BME280;41524;35.624;139.698;2022-10-19T19:45:10;102279.00;;;10.97;44.63
53659;BME280;41524;35.624;139.698;2022-10-19T19:50:11;102282.00;;;11.03;45.72
53659;BME280;41524;35.624;139.698;2022-10-19T19:55:12;102289.00;;;11.16;46.69
53659;BME280;41524;35.624;139.698;2022-10-19T20:00:12;102294.00;;;10.63;46.86
53659;BME280;41524;35.624;139.698;2022-10-19T20:05:11;102289.00;;;10.89;46.83
53659;BME280;41524;35.624;139.698;2022-10-19T20:10:14;102295.00;;;10.06;48.17
53659;BME280;41524;35.624;139.698;2022-10-19T20:15:12;102300.00;;;10.46;47.19
53659;BME280;41524;35.624;139.698;2022-10-19T20:20:13;102301.00;;;10.54;45.07
53659;BME280;41524;35.624;139.698;2022-10-19T20:25:12;102312.00;;;10.98;44.95
53659;BME280;41524;35.624;139.698;2022-10-19T20:30:16;102315.00;;;10.35;45.25
53659;BME280;41524;35.624;139.698;2022-10-19T20:35:11;102318.00;;;10.48;44.95
53659;BME280;41524;35.624;139.698;2022-10-19T20:40:11;102326.00;;;10.43;43.59
53659;BME280;41524;35.624;139.698;2022-10-19T20:45:11;102326.00;;;10.69;44.51
53659;BME280;41524;35.624;139.698;2022-10-19T20:50:10;102332.00;;;10.47;45.03
53659;BME280;41524;35.624;139.698;2022-10-19T20:55:15;102338.00;;;11.22;41.57
53659;BME280;41524;35.624;139.698;2022-10-19T21:00:15;102340.00;;;10.58;40.53
53659;BME280;41524;35.624;139.698;2022-10-19T21:05:10;102346.00;;;10.54;40.48
53659;BME280;41524;35.624;139.698;2022-10-19T21:10:22;102348.00;;;11.32;39.23
53659;BME280;41524;35.624;139.698;2022-10-19T21:15:12;102349.00;;;10.68;40.22
53659;BME280;41524;35.624;139.698;2022-10-19T21:20:10;102350.00;;;10.59;40.76
53659;BME280;41524;35.624;139.698;2022-10-19T21:25:13;102353.00;;;10.22;42.28
53659;BME280;41524;35.624;139.698;2022-10-19T21:30:10;102357.00;;;9.52;43.46
53659;BME280;41524;35.624;139.698;2022-10-19T21:35:15;102358.00;;;9.93;43.40
53659;BME280;41524;35.624;139.698;2022-10-19T21:40:11;102362.00;;;10.63;42.42
53659;BME280;41524;35.624;139.698;2022-10-19T21:45:12;102367.00;;;10.98;42.80
53659;BME280;41524;35.624;139.698;2022-10-19T21:50:13;102379.00;;;11.09;42.15
53659;BME280;41524;35.624;139.698;2022-10-19T21:55:15;102387.00;;;11.49;42.09
53659;BME280;41524;35.624;139.698;2022-10-19T22:00:11;102401.00;;;11.67;42.74
53659;BME280;41524;35.624;139.698;2022-10-19T22:05:12;102407.00;;;13.41;41.16
53659;BME280;41524;35.624;139.698;2022-10-19T22:10:11;102420.00;;;12.11;41.81
53659;BME280;41524;35.624;139.698;2022-10-19T22:15:13;102426.00;;;12.12;43.05
53659;BME280;41524;35.624;139.698;2022-10-19T22:20:16;102429.00;;;12.15;42.93
53659;BME280;41524;35.624;139.698;2022-10-19T22:25:16;102427.00;;;12.68;41.05
53659;BME280;41524;35.624;139.698;2022-10-19T22:30:12;102430.00;;;14.47;40.50
53659;BME280;41524;35.624;139.698;2022-10-19T22:35:11;102431.00;;;13.65;40.12
53659;BME280;41524;35.624;139.698;2022-10-19T22:40:11;102442.00;;;13.14;43.27
53659;BME280;41524;35.624;139.698;2022-10-19T22:45:16;102441.00;;;15.06;39.30
53659;BME280;41524;35.624;139.698;2022-10-19T22:50:16;102447.00;;;14.13;42.17
53659;BME280;41524;35.624;139.698;2022-10-19T22:55:19;102451.00;;;13.63;39.56
53659;BME280;41524;35.624;139.698;2022-10-19T23:00:16;102458.00;;;14.40;41.04
53659;BME280;41524;35.624;139.698;2022-10-19T23:05:11;102462.00;;;15.12;38.61
53659;BME280;41524;35.624;139.698;2022-10-19T23:10:11;102463.00;;;15.79;38.48
53659;BME280;41524;35.624;139.698;2022-10-19T23:15:15;102455.00;;;17.13;34.99
53659;BME280;41524;35.624;139.698;2022-10-19T23:20:12;102471.00;;;16.08;36.42
53659;BME280;41524;35.624;139.698;2022-10-19T23:25:13;102470.00;;;17.03;35.57
53659;BME280;41524;35.624;139.698;2022-10-19T23:30:12;102479.00;;;16.07;35.68
53659;BME280;41524;35.624;139.698;2022-10-19T23:35:15;102477.00;;;17.00;33.98
53659;BME280;41524;35.624;139.698;2022-10-19T23:40:15;102481.00;;;17.37;34.89
53659;BME280;41524;35.624;139.698;2022-10-19T23:45:11;102483.00;;;17.54;33.83
53659;BME280;41524;35.624;139.698;2022-10-19T23:50:11;102480.00;;;18.08;32.73
53659;BME280;41524;35.624;139.698;2022-10-19T23:55:12;102476.00;;;18.84;31.58
